KMFR/MFR METAR and TAF weather

Enter ICAO airport designator
Station Type Date Time Source
KMFR METAR 2019/12/07 17:15 UTC NOAA

KMFR 071715Z VRB03KT 1/4SM R14/1800V2400FT FG BKN001 05/04 A2978 RMK AO2 T00500044


Station Type Date Time Source
KMFR Decoded METAR 2019/12/07 17:15 UTC NOAA

ROGUE VALLEY INTERNATIONAL AIRPORT, OR, United States (KMFR) 42-23N 122-53W 396M
Dec 07, 2019 - 12:15 PM EST / 2019.12.07 1715 UTC
Wind: Variable at 3 MPH (3 KT) (direction variable):0
Visibility: 1/4 mile(s):0
Sky conditions: mostly cloudy
Weather: fog
Temperature: 41.0 F (5.0 C)
Dew Point: 39.9 F (4.4 C)
Relative Humidity: 95%
Pressure (altimeter): 29.78 in. Hg (1008 hPa)
ob: KMFR 071715Z VRB03KT 1/4SM R14/1800V2400FT FG BKN001 05/04 A2978 RMK AO2 T00500044
cycle: 17

Station Type Date Time Source
KMFR TAF 2019/12/07 18:45 UTC NOAA

TAF KMFR 071742Z 0718/0818 VRB03KT 5SM -SHRA BR SCT001 SCT020 OVC035
FM072200 14005KT 6SM -RA BR SCT020 OVC030
FM080200 15006KT 6SM -RA BR SCT015 BKN025 OVC040
FM081100 VRB02KT 1/2SM FG VV002

Example: see airport list